sensor_id;sensor_type;location;lat;lon;timestamp;pressure;altitude;pressure_sealevel;temperature;humidity
70968;BME280;58629;48.808;8.820;2023-04-08T00:01:27;97375.38;;;6.40;100.00
70968;BME280;58629;48.808;8.820;2023-04-08T00:03:52;97376.16;;;6.41;100.00
70968;BME280;58629;48.808;8.820;2023-04-08T00:06:18;97369.41;;;6.40;100.00
70968;BME280;58629;48.808;8.820;2023-04-08T00:08:43;97375.03;;;6.42;100.00
70968;BME280;58629;48.808;8.820;2023-04-08T00:11:08;97382.94;;;6.42;100.00
70968;BME280;58629;48.808;8.820;2023-04-08T00:13:33;97376.91;;;6.41;100.00
70968;BME280;58629;48.808;8.820;2023-04-08T00:15:59;97375.03;;;6.42;100.00
70968;BME280;58629;48.808;8.820;2023-04-08T00:18:25;97379.16;;;6.43;100.00
70968;BME280;58629;48.808;8.820;2023-04-08T00:20:51;97383.66;;;6.42;100.00
70968;BME280;58629;48.808;8.820;2023-04-08T00:23:16;97376.53;;;6.43;100.00
70968;BME280;58629;48.808;8.820;2023-04-08T00:25:42;97387.06;;;6.43;100.00
70968;BME280;58629;48.808;8.820;2023-04-08T00:28:07;97376.16;;;6.41;100.00
70968;BME280;58629;48.808;8.820;2023-04-08T00:30:33;97380.66;;;6.40;100.00
70968;BME280;58629;48.808;8.820;2023-04-08T00:32:58;97383.28;;;6.40;100.00
70968;BME280;58629;48.808;8.820;2023-04-08T00:35:24;97383.66;;;6.39;100.00
70968;BME280;58629;48.808;8.820;2023-04-08T00:37:49;97387.81;;;6.40;100.00
70968;BME280;58629;48.808;8.820;2023-04-08T00:40:15;97378.78;;;6.44;100.00
70968;BME280;58629;48.808;8.820;2023-04-08T00:42:40;97382.94;;;6.49;100.00
70968;BME280;58629;48.808;8.820;2023-04-08T00:45:06;97382.94;;;6.52;100.00
70968;BME280;58629;48.808;8.820;2023-04-08T00:47:32;97379.53;;;6.52;100.00
70968;BME280;58629;48.808;8.820;2023-04-08T00:49:59;97384.81;;;6.52;100.00
70968;BME280;58629;48.808;8.820;2023-04-08T00:52:25;97391.59;;;6.53;100.00
70968;BME280;58629;48.808;8.820;2023-04-08T00:54:50;97387.81;;;6.50;100.00
70968;BME280;58629;48.808;8.820;2023-04-08T00:57:15;97393.84;;;6.47;100.00
70968;BME280;58629;48.808;8.820;2023-04-08T00:59:41;97392.31;;;6.46;100.00
70968;BME280;58629;48.808;8.820;2023-04-08T01:02:14;97393.06;;;6.43;100.00
70968;BME280;58629;48.808;8.820;2023-04-08T01:04:48;97394.56;;;6.44;100.00
70968;BME280;58629;48.808;8.820;2023-04-08T01:07:21;97391.56;;;6.42;100.00
70968;BME280;58629;48.808;8.820;2023-04-08T01:09:53;97387.06;;;6.43;100.00
70968;BME280;58629;48.808;8.820;2023-04-08T01:12:24;97391.19;;;6.44;100.00
70968;BME280;58629;48.808;8.820;2023-04-08T01:14:56;97396.09;;;6.45;100.00
70968;BME280;58629;48.808;8.820;2023-04-08T01:17:23;97391.16;;;6.40;100.00
70968;BME280;58629;48.808;8.820;2023-04-08T01:19:49;97391.94;;;6.41;100.00
70968;BME280;58629;48.808;8.820;2023-04-08T01:24:49;97396.44;;;6.40;100.00
70968;BME280;58629;48.808;8.820;2023-04-08T01:27:21;97390.78;;;6.38;100.00
70968;BME280;58629;48.808;8.820;2023-04-08T01:29:48;97397.56;;;6.39;100.00
70968;BME280;58629;48.808;8.820;2023-04-08T01:32:13;97396.03;;;6.38;100.00
70968;BME280;58629;48.808;8.820;2023-04-08T01:34:40;97399.06;;;6.37;100.00
70968;BME280;58629;48.808;8.820;2023-04-08T01:37:06;97396.03;;;6.38;100.00
70968;BME280;58629;48.808;8.820;2023-04-08T01:39:33;97395.28;;;6.34;100.00
70968;BME280;58629;48.808;8.820;2023-04-08T01:41:59;97398.28;;;6.33;100.00
70968;BME280;58629;48.808;8.820;2023-04-08T01:44:26;97391.88;;;6.30;100.00
70968;BME280;58629;48.808;8.820;2023-04-08T01:46:53;97390.41;;;6.29;100.00
70968;BME280;58629;48.808;8.820;2023-04-08T01:49:19;97387.75;;;6.26;100.00
70968;BME280;58629;48.808;8.820;2023-04-08T01:51:47;97382.47;;;6.22;100.00
70968;BME280;58629;48.808;8.820;2023-04-08T01:54:13;97384.38;;;6.22;100.00
70968;BME280;58629;48.808;8.820;2023-04-08T01:56:40;97384.00;;;6.23;100.00
70968;BME280;58629;48.808;8.820;2023-04-08T01:59:09;97376.81;;;6.20;100.00
70968;BME280;58629;48.808;8.820;2023-04-08T02:01:36;97382.47;;;6.19;100.00
70968;BME280;58629;48.808;8.820;2023-04-08T02:04:02;97376.81;;;6.17;100.00
70968;BME280;58629;48.808;8.820;2023-04-08T02:06:27;97389.97;;;6.17;100.00
70968;BME280;58629;48.808;8.820;2023-04-08T02:08:54;97386.56;;;6.16;100.00
70968;BME280;58629;48.808;8.820;2023-04-08T02:11:19;97389.97;;;6.17;100.00
70968;BME280;58629;48.808;8.820;2023-04-08T02:13:45;97390.34;;;6.15;100.00
70968;BME280;58629;48.808;8.820;2023-04-08T02:16:18;97389.59;;;6.14;100.00
70968;BME280;58629;48.808;8.820;2023-04-08T02:19:01;97391.09;;;6.16;100.00
70968;BME280;58629;48.808;8.820;2023-04-08T02:21:37;97386.19;;;6.14;100.00
70968;BME280;58629;48.808;8.820;2023-04-08T02:24:07;97375.28;;;6.12;100.00
70968;BME280;58629;48.808;8.820;2023-04-08T02:26:35;97384.31;;;6.11;100.00
70968;BME280;58629;48.808;8.820;2023-04-08T02:29:02;97385.81;;;6.12;100.00
70968;BME280;58629;48.808;8.820;2023-04-08T02:31:29;97377.91;;;6.12;100.00
70968;BME280;58629;48.808;8.820;2023-04-08T02:33:55;97379.06;;;6.11;100.00
70968;BME280;58629;48.808;8.820;2023-04-08T02:36:22;97374.56;;;6.08;100.00
70968;BME280;58629;48.808;8.820;2023-04-08T02:38:48;97379.06;;;6.11;100.00
70968;BME280;58629;48.808;8.820;2023-04-08T02:41:14;97383.94;;;6.09;100.00
70968;BME280;58629;48.808;8.820;2023-04-08T02:43:40;97384.69;;;6.09;100.00
70968;BME280;58629;48.808;8.820;2023-04-08T02:46:05;97386.19;;;6.10;100.00
70968;BME280;58629;48.808;8.820;2023-04-08T02:48:31;97388.44;;;6.08;100.00
70968;BME280;58629;48.808;8.820;2023-04-08T02:50:56;97385.03;;;6.04;100.00
70968;BME280;58629;48.808;8.820;2023-04-08T02:53:22;97386.16;;;6.03;100.00
70968;BME280;58629;48.808;8.820;2023-04-08T02:55:48;97381.28;;;6.02;100.00
70968;BME280;58629;48.808;8.820;2023-04-08T02:58:14;97388.78;;;6.00;100.00
70968;BME280;58629;48.808;8.820;2023-04-08T03:00:39;97385.41;;;5.99;100.00
70968;BME280;58629;48.808;8.820;2023-04-08T03:03:05;97387.28;;;5.99;100.00
70968;BME280;58629;48.808;8.820;2023-04-08T03:05:31;97382.78;;;5.99;100.00
70968;BME280;58629;48.808;8.820;2023-04-08T03:07:56;97390.66;;;5.99;100.00
70968;BME280;58629;48.808;8.820;2023-04-08T03:10:21;97392.16;;;6.00;100.00
70968;BME280;58629;48.808;8.820;2023-04-08T03:12:46;97392.53;;;5.99;100.00
70968;BME280;58629;48.808;8.820;2023-04-08T03:15:12;97390.28;;;5.97;100.00
70968;BME280;58629;48.808;8.820;2023-04-08T03:17:37;97382.38;;;5.97;100.00
70968;BME280;58629;48.808;8.820;2023-04-08T03:20:02;97386.13;;;5.96;100.00
70968;BME280;58629;48.808;8.820;2023-04-08T03:22:32;97386.50;;;5.98;100.00
70968;BME280;58629;48.808;8.820;2023-04-08T03:24:57;97392.16;;;6.00;100.00
70968;BME280;58629;48.808;8.820;2023-04-08T03:27:23;97391.81;;;6.02;100.00
70968;BME280;58629;48.808;8.820;2023-04-08T03:29:48;97394.06;;;6.03;100.00
70968;BME280;58629;48.808;8.820;2023-04-08T03:32:13;97391.44;;;6.03;100.00
70968;BME280;58629;48.808;8.820;2023-04-08T03:34:39;97391.81;;;6.05;100.00
70968;BME280;58629;48.808;8.820;2023-04-08T03:37:04;97391.44;;;6.07;100.00
70968;BME280;58629;48.808;8.820;2023-04-08T03:39:29;97398.56;;;6.06;100.00
70968;BME280;58629;48.808;8.820;2023-04-08T03:41:55;97398.56;;;6.03;100.00
70968;BME280;58629;48.808;8.820;2023-04-08T03:44:21;97394.06;;;6.03;100.00
70968;BME280;58629;48.808;8.820;2023-04-08T03:46:46;97394.06;;;6.03;100.00
70968;BME280;58629;48.808;8.820;2023-04-08T03:49:12;97398.56;;;6.03;100.00
70968;BME280;58629;48.808;8.820;2023-04-08T03:51:37;97395.91;;;5.99;100.00
70968;BME280;58629;48.808;8.820;2023-04-08T03:54:02;97400.78;;;5.97;100.00
70968;BME280;58629;48.808;8.820;2023-04-08T03:56:27;97394.38;;;5.95;100.00
70968;BME280;58629;48.808;8.820;2023-04-08T03:58:53;97395.91;;;5.96;100.00
70968;BME280;58629;48.808;8.820;2023-04-08T04:01:18;97392.50;;;5.95;100.00
70968;BME280;58629;48.808;8.820;2023-04-08T04:03:43;97390.28;;;5.94;100.00
70968;BME280;58629;48.808;8.820;2023-04-08T04:06:09;97388.75;;;5.93;100.00
70968;BME280;58629;48.808;8.820;2023-04-08T04:08:34;97392.91;;;5.94;100.00
70968;BME280;58629;48.808;8.820;2023-04-08T04:11:00;97394.38;;;5.95;100.00
70968;BME280;58629;48.808;8.820;2023-04-08T04:13:25;97391.38;;;5.93;100.00
70968;BME280;58629;48.808;8.820;2023-04-08T04:15:50;97391.75;;;5.91;100.00
70968;BME280;58629;48.808;8.820;2023-04-08T04:18:16;97393.63;;;5.91;100.00
70968;BME280;58629;48.808;8.820;2023-04-08T04:20:41;97392.50;;;5.92;100.00
70968;BME280;58629;48.808;8.820;2023-04-08T04:23:07;97391.00;;;5.91;100.00
70968;BME280;58629;48.808;8.820;2023-04-08T04:25:33;97398.13;;;5.90;100.00
70968;BME280;58629;48.808;8.820;2023-04-08T04:27:58;97397.00;;;5.91;100.00
70968;BME280;58629;48.808;8.820;2023-04-08T04:30:23;97401.13;;;5.89;100.00
70968;BME280;58629;48.808;8.820;2023-04-08T04:32:48;97398.13;;;5.90;100.00
70968;BME280;58629;48.808;8.820;2023-04-08T04:35:14;97405.25;;;5.90;100.00
70968;BME280;58629;48.808;8.820;2023-04-08T04:37:39;97400.34;;;5.88;100.00
70968;BME280;58629;48.808;8.820;2023-04-08T04:40:05;97398.88;;;5.87;100.00
70968;BME280;58629;48.808;8.820;2023-04-08T04:42:31;97401.09;;;5.85;100.00
70968;BME280;58629;48.808;8.820;2023-04-08T04:44:57;97398.44;;;5.82;100.00
70968;BME280;58629;48.808;8.820;2023-04-08T04:47:23;97404.78;;;5.77;100.00
70968;BME280;58629;48.808;8.820;2023-04-08T04:49:48;97408.16;;;5.78;100.00
70968;BME280;58629;48.808;8.820;2023-04-08T04:52:13;97408.16;;;5.78;100.00
70968;BME280;58629;48.808;8.820;2023-04-08T04:54:39;97410.03;;;5.77;100.00
70968;BME280;58629;48.808;8.820;2023-04-08T04:57:04;97409.66;;;5.79;100.00
70968;BME280;58629;48.808;8.820;2023-04-08T04:59:29;97408.94;;;5.78;100.00
70968;BME280;58629;48.808;8.820;2023-04-08T05:01:55;97410.44;;;5.79;100.00
70968;BME280;58629;48.808;8.820;2023-04-08T05:04:22;97417.56;;;5.79;100.00
70968;BME280;58629;48.808;8.820;2023-04-08T05:06:47;97410.81;;;5.78;100.00
70968;BME280;58629;48.808;8.820;2023-04-08T05:09:12;97414.53;;;5.77;100.00
70968;BME280;58629;48.808;8.820;2023-04-08T05:11:38;97418.31;;;5.79;100.00
70968;BME280;58629;48.808;8.820;2023-04-08T05:14:03;97415.31;;;5.81;100.00
70968;BME280;58629;48.808;8.820;2023-04-08T05:16:28;97414.94;;;5.82;100.00
70968;BME280;58629;48.808;8.820;2023-04-08T05:18:53;97423.59;;;5.83;100.00
70968;BME280;58629;48.808;8.820;2023-04-08T05:21:19;97426.22;;;5.83;100.00
70968;BME280;58629;48.808;8.820;2023-04-08T05:23:44;97433.00;;;5.84;100.00
70968;BME280;58629;48.808;8.820;2023-04-08T05:26:10;97427.00;;;5.87;100.00
70968;BME280;58629;48.808;8.820;2023-04-08T05:28:35;97427.41;;;5.89;100.00
70968;BME280;58629;48.808;8.820;2023-04-08T05:31:01;97434.91;;;5.90;100.00
70968;BME280;58629;48.808;8.820;2023-04-08T05:33:26;97436.03;;;5.89;100.00
70968;BME280;58629;48.808;8.820;2023-04-08T05:35:51;97435.66;;;5.91;100.00
70968;BME280;58629;48.808;8.820;2023-04-08T05:38:17;97438.69;;;5.93;100.00
70968;BME280;58629;48.808;8.820;2023-04-08T05:40:42;97433.44;;;5.96;100.00
70968;BME280;58629;48.808;8.820;2023-04-08T05:43:08;97436.84;;;6.00;100.00
70968;BME280;58629;48.808;8.820;2023-04-08T05:45:33;97439.84;;;5.99;100.00
70968;BME280;58629;48.808;8.820;2023-04-08T05:47:58;97435.72;;;6.01;100.00
70968;BME280;58629;48.808;8.820;2023-04-08T05:50:24;97437.22;;;6.02;100.00
70968;BME280;58629;48.808;8.820;2023-04-08T05:52:50;97443.25;;;6.03;100.00
70968;BME280;58629;48.808;8.820;2023-04-08T05:55:15;97443.63;;;6.05;100.00
70968;BME280;58629;48.808;8.820;2023-04-08T05:57:40;97447.78;;;6.09;100.00
70968;BME280;58629;48.808;8.820;2023-04-08T06:00:07;97447.03;;;6.09;100.00
70968;BME280;58629;48.808;8.820;2023-04-08T06:02:34;97448.94;;;6.16;100.00
70968;BME280;58629;48.808;8.820;2023-04-08T06:05:00;97452.75;;;6.25;100.00
70968;BME280;58629;48.808;8.820;2023-04-08T06:07:25;97455.75;;;6.27;100.00
70968;BME280;58629;48.808;8.820;2023-04-08T06:09:50;97453.91;;;6.35;100.00
70968;BME280;58629;48.808;8.820;2023-04-08T06:12:16;97458.44;;;6.45;100.00
70968;BME280;58629;48.808;8.820;2023-04-08T06:14:41;97459.94;;;6.39;100.00
70968;BME280;58629;48.808;8.820;2023-04-08T06:17:06;97461.03;;;6.31;100.00
70968;BME280;58629;48.808;8.820;2023-04-08T06:19:31;97464.03;;;6.33;100.00
70968;BME280;58629;48.808;8.820;2023-04-08T06:21:57;97465.56;;;6.37;100.00
70968;BME280;58629;48.808;8.820;2023-04-08T06:24:26;97464.03;;;6.29;100.00
70968;BME280;58629;48.808;8.820;2023-04-08T06:26:53;97473.41;;;6.30;100.00
70968;BME280;58629;48.808;8.820;2023-04-08T06:29:20;97473.06;;;6.35;100.00
70968;BME280;58629;48.808;8.820;2023-04-08T06:31:46;97474.56;;;6.36;100.00
70968;BME280;58629;48.808;8.820;2023-04-08T06:34:11;97475.72;;;6.35;100.00
70968;BME280;58629;48.808;8.820;2023-04-08T06:36:36;97479.06;;;6.32;100.00
70968;BME280;58629;48.808;8.820;2023-04-08T06:39:01;97482.13;;;6.38;100.00
70968;BME280;58629;48.808;8.820;2023-04-08T06:41:27;97484.34;;;6.36;100.00
70968;BME280;58629;48.808;8.820;2023-04-08T06:43:53;97485.47;;;6.35;100.00
70968;BME280;58629;48.808;8.820;2023-04-08T06:46:18;97490.00;;;6.38;100.00
70968;BME280;58629;48.808;8.820;2023-04-08T06:48:43;97492.66;;;6.41;100.00
70968;BME280;58629;48.808;8.820;2023-04-08T06:51:08;97487.72;;;6.36;100.00
70968;BME280;58629;48.808;8.820;2023-04-08T06:53:34;97487.38;;;6.41;100.00
70968;BME280;58629;48.808;8.820;2023-04-08T06:56:00;97493.41;;;6.45;100.00
70968;BME280;58629;48.808;8.820;2023-04-08T06:58:25;97489.66;;;6.50;100.00
70968;BME280;58629;48.808;8.820;2023-04-08T07:00:53;97491.94;;;6.51;100.00
70968;BME280;58629;48.808;8.820;2023-04-08T07:03:18;97493.81;;;6.54;99.85
70968;BME280;58629;48.808;8.820;2023-04-08T07:05:43;97491.97;;;6.62;99.65
70968;BME280;58629;48.808;8.820;2023-04-08T07:08:09;97502.50;;;6.65;98.61
70968;BME280;58629;48.808;8.820;2023-04-08T07:10:34;97497.66;;;6.71;98.28
70968;BME280;58629;48.808;8.820;2023-04-08T07:13:00;97499.91;;;6.76;97.59
70968;BME280;58629;48.808;8.820;2023-04-08T07:15:25;97504.81;;;6.81;97.93
70968;BME280;58629;48.808;8.820;2023-04-08T07:17:51;97498.81;;;6.87;98.63
70968;BME280;58629;48.808;8.820;2023-04-08T07:20:16;97501.09;;;6.92;98.60
70968;BME280;58629;48.808;8.820;2023-04-08T07:22:42;97503.72;;;6.92;97.70
70968;BME280;58629;48.808;8.820;2023-04-08T07:25:07;97496.97;;;6.95;97.76
70968;BME280;58629;48.808;8.820;2023-04-08T07:27:33;97509.00;;;6.99;96.23
70968;BME280;58629;48.808;8.820;2023-04-08T07:29:59;97513.53;;;7.03;96.53
70968;BME280;58629;48.808;8.820;2023-04-08T07:32:24;97515.03;;;7.00;96.40
70968;BME280;58629;48.808;8.820;2023-04-08T07:34:49;97512.34;;;6.86;95.78
70968;BME280;58629;48.808;8.820;2023-04-08T07:37:15;97518.75;;;6.88;96.14
70968;BME280;58629;48.808;8.820;2023-04-08T07:39:40;97526.31;;;6.97;97.19
70968;BME280;58629;48.808;8.820;2023-04-08T07:42:05;97528.94;;;6.97;96.06
70968;BME280;58629;48.808;8.820;2023-04-08T07:44:30;97532.69;;;6.96;96.65
70968;BME280;58629;48.808;8.820;2023-04-08T07:46:56;97530.44;;;6.94;95.37
70968;BME280;58629;48.808;8.820;2023-04-08T07:49:21;97527.41;;;6.99;95.64
70968;BME280;58629;48.808;8.820;2023-04-08T07:51:46;97528.19;;;6.96;95.85
70968;BME280;58629;48.808;8.820;2023-04-08T07:54:12;97524.44;;;7.05;95.41
70968;BME280;58629;48.808;8.820;2023-04-08T07:56:41;97528.97;;;7.15;95.32
70968;BME280;58629;48.808;8.820;2023-04-08T07:59:08;97536.88;;;7.18;93.91
70968;BME280;58629;48.808;8.820;2023-04-08T08:01:34;97533.50;;;7.21;94.73
70968;BME280;58629;48.808;8.820;2023-04-08T08:04:00;97529.34;;;7.17;94.33
70968;BME280;58629;48.808;8.820;2023-04-08T08:06:26;97534.25;;;7.22;95.00
70968;BME280;58629;48.808;8.820;2023-04-08T08:08:54;97544.41;;;7.20;93.44
70968;BME280;58629;48.808;8.820;2023-04-08T08:11:19;97542.91;;;7.22;94.06
70968;BME280;58629;48.808;8.820;2023-04-08T08:13:46;97544.44;;;7.30;93.94
70968;BME280;58629;48.808;8.820;2023-04-08T08:16:12;97533.53;;;7.39;93.71
70968;BME280;58629;48.808;8.820;2023-04-08T08:18:37;97533.88;;;7.41;93.39
70968;BME280;58629;48.808;8.820;2023-04-08T08:21:04;97544.44;;;7.51;92.32
70968;BME280;58629;48.808;8.820;2023-04-08T08:23:29;97536.94;;;7.64;92.94
70968;BME280;58629;48.808;8.820;2023-04-08T08:26:01;97545.97;;;7.66;90.94
70968;BME280;58629;48.808;8.820;2023-04-08T08:28:27;97544.47;;;7.83;89.91
70968;BME280;58629;48.808;8.820;2023-04-08T08:30:53;97545.59;;;8.00;88.14
70968;BME280;58629;48.808;8.820;2023-04-08T08:33:18;97550.47;;;8.08;86.75
70968;BME280;58629;48.808;8.820;2023-04-08T08:35:43;97550.84;;;8.10;86.60
70968;BME280;58629;48.808;8.820;2023-04-08T08:38:09;97547.06;;;8.32;87.01
70968;BME280;58629;48.808;8.820;2023-04-08T08:40:35;97556.84;;;8.39;84.59
70968;BME280;58629;48.808;8.820;2023-04-08T08:43:00;97553.03;;;8.50;84.94
70968;BME280;58629;48.808;8.820;2023-04-08T08:45:25;97562.78;;;8.71;83.80
70968;BME280;58629;48.808;8.820;2023-04-08T08:47:51;97563.59;;;8.54;83.83
70968;BME280;58629;48.808;8.820;2023-04-08T08:50:17;97566.22;;;8.54;83.61
70968;BME280;58629;48.808;8.820;2023-04-08T08:52:51;97567.00;;;8.44;84.70
70968;BME280;58629;48.808;8.820;2023-04-08T08:55:20;97562.50;;;8.51;84.98
70968;BME280;58629;48.808;8.820;2023-04-08T08:57:49;97564.00;;;8.49;83.45
70968;BME280;58629;48.808;8.820;2023-04-08T09:00:15;97572.63;;;8.56;82.67
70968;BME280;58629;48.808;8.820;2023-04-08T09:02:41;97568.84;;;8.64;80.83
70968;BME280;58629;48.808;8.820;2023-04-08T09:05:06;97566.09;;;8.93;81.16
70968;BME280;58629;48.808;8.820;2023-04-08T09:07:35;97563.44;;;8.96;80.25
70968;BME280;58629;48.808;8.820;2023-04-08T09:10:01;97564.22;;;8.90;80.96
70968;BME280;58629;48.808;8.820;2023-04-08T09:12:26;97565.69;;;9.01;78.14
70968;BME280;58629;48.808;8.820;2023-04-08T09:15:08;97564.22;;;9.58;78.11
70968;BME280;58629;48.808;8.820;2023-04-08T09:17:38;97569.06;;;9.67;78.19
70968;BME280;58629;48.808;8.820;2023-04-08T09:25:28;97565.44;;;9.95;74.37
70968;BME280;58629;48.808;8.820;2023-04-08T09:27:54;97565.16;;;9.86;74.60
70968;BME280;58629;48.808;8.820;2023-04-08T09:30:21;97558.34;;;9.88;72.09
70968;BME280;58629;48.808;8.820;2023-04-08T09:32:51;97561.16;;;10.15;72.46
70968;BME280;58629;48.808;8.820;2023-04-08T09:35:18;97563.06;;;10.52;71.44
70968;BME280;58629;48.808;8.820;2023-04-08T09:37:44;97564.19;;;10.84;67.00
70968;BME280;58629;48.808;8.820;2023-04-08T09:40:10;97566.69;;;10.98;67.41
70968;BME280;58629;48.808;8.820;2023-04-08T09:42:39;97571.28;;;10.94;62.15
70968;BME280;58629;48.808;8.820;2023-04-08T09:45:06;97564.81;;;11.25;62.14
70968;BME280;58629;48.808;8.820;2023-04-08T09:47:41;97565.06;;;11.61;58.86
70968;BME280;58629;48.808;8.820;2023-04-08T09:50:08;97569.63;;;11.87;58.87
70968;BME280;58629;48.808;8.820;2023-04-08T09:52:38;97574.56;;;11.85;57.03
70968;BME280;58629;48.808;8.820;2023-04-08T09:55:08;97565.81;;;11.88;59.11
70968;BME280;58629;48.808;8.820;2023-04-08T09:57:40;97573.03;;;11.88;59.37
70968;BME280;58629;48.808;8.820;2023-04-08T10:00:15;97573.66;;;11.95;60.08
70968;BME280;58629;48.808;8.820;2023-04-08T10:03:12;97573.09;;;12.07;57.83
70968;BME280;58629;48.808;8.820;2023-04-08T10:05:44;97571.19;;;12.08;57.29
70968;BME280;58629;48.808;8.820;2023-04-08T10:08:11;97564.81;;;12.25;55.86
70968;BME280;58629;48.808;8.820;2023-04-08T10:10:38;97573.59;;;12.22;57.13
70968;BME280;58629;48.808;8.820;2023-04-08T10:13:04;97574.16;;;12.33;58.85
70968;BME280;58629;48.808;8.820;2023-04-08T10:15:35;97572.66;;;12.09;57.56
70968;BME280;58629;48.808;8.820;2023-04-08T10:22:59;97577.63;;;11.84;56.47
70968;BME280;58629;48.808;8.820;2023-04-08T10:25:28;97577.19;;;12.12;58.99
70968;BME280;58629;48.808;8.820;2023-04-08T10:27:55;97573.16;;;12.04;57.83
70968;BME280;58629;48.808;8.820;2023-04-08T10:32:53;97571.63;;;12.03;54.72
70968;BME280;58629;48.808;8.820;2023-04-08T10:35:37;97571.13;;;11.88;57.58
70968;BME280;58629;48.808;8.820;2023-04-08T10:38:06;97578.50;;;11.47;56.96
70968;BME280;58629;48.808;8.820;2023-04-08T10:40:35;97573.38;;;10.76;58.07
70968;BME280;58629;48.808;8.820;2023-04-08T10:43:03;97573.66;;;10.52;60.24
70968;BME280;58629;48.808;8.820;2023-04-08T10:45:29;97575.47;;;10.58;60.07
70968;BME280;58629;48.808;8.820;2023-04-08T10:47:54;97572.81;;;10.92;59.99
70968;BME280;58629;48.808;8.820;2023-04-08T10:50:20;97576.72;;;10.80;61.16
70968;BME280;58629;48.808;8.820;2023-04-08T10:52:52;97574.28;;;10.96;61.55
70968;BME280;58629;48.808;8.820;2023-04-08T10:55:22;97577.88;;;11.13;61.61
70968;BME280;58629;48.808;8.820;2023-04-08T10:57:49;97570.97;;;11.19;60.49
70968;BME280;58629;48.808;8.820;2023-04-08T11:00:31;97575.38;;;10.99;60.39
70968;BME280;58629;48.808;8.820;2023-04-08T11:03:01;97573.56;;;10.92;62.09
70968;BME280;58629;48.808;8.820;2023-04-08T11:05:27;97571.41;;;11.14;63.19
70968;BME280;58629;48.808;8.820;2023-04-08T11:07:52;97569.56;;;11.11;60.31
70968;BME280;58629;48.808;8.820;2023-04-08T11:10:18;97569.97;;;11.36;62.38
70968;BME280;58629;48.808;8.820;2023-04-08T11:12:44;97570.28;;;11.11;59.14
70968;BME280;58629;48.808;8.820;2023-04-08T11:15:10;97568.00;;;10.83;58.00
70968;BME280;58629;48.808;8.820;2023-04-08T11:17:37;97562.38;;;10.44;61.22
70968;BME280;58629;48.808;8.820;2023-04-08T11:20:02;97570.84;;;10.28;61.81
70968;BME280;58629;48.808;8.820;2023-04-08T11:22:30;97563.41;;;10.16;60.74
70968;BME280;58629;48.808;8.820;2023-04-08T11:24:58;97560.94;;;10.36;60.27
70968;BME280;58629;48.808;8.820;2023-04-08T11:27:23;97565.22;;;10.60;64.42
70968;BME280;58629;48.808;8.820;2023-04-08T11:29:51;97565.91;;;10.68;62.08
70968;BME280;58629;48.808;8.820;2023-04-08T11:32:18;97567.66;;;10.78;62.53
70968;BME280;58629;48.808;8.820;2023-04-08T11:34:43;97566.09;;;10.84;62.07
70968;BME280;58629;48.808;8.820;2023-04-08T11:37:08;97562.72;;;10.80;61.32
70968;BME280;58629;48.808;8.820;2023-04-08T11:39:41;97565.91;;;10.68;62.86
70968;BME280;58629;48.808;8.820;2023-04-08T11:42:06;97569.06;;;10.56;63.18
70968;BME280;58629;48.808;8.820;2023-04-08T11:44:32;97566.97;;;10.36;62.55
70968;BME280;58629;48.808;8.820;2023-04-08T11:46:57;97571.53;;;9.92;60.64
70968;BME280;58629;48.808;8.820;2023-04-08T11:49:23;97572.25;;;9.96;62.90
70968;BME280;58629;48.808;8.820;2023-04-08T11:51:58;97566.97;;;9.96;63.76
70968;BME280;58629;48.808;8.820;2023-04-08T11:54:28;97569.13;;;10.04;63.66
70968;BME280;58629;48.808;8.820;2023-04-08T11:56:54;97567.91;;;10.19;62.13
70968;BME280;58629;48.808;8.820;2023-04-08T11:59:23;97568.28;;;10.21;59.03
70968;BME280;58629;48.808;8.820;2023-04-08T12:01:50;97558.06;;;10.23;58.44
70968;BME280;58629;48.808;8.820;2023-04-08T12:04:16;97568.78;;;10.06;56.11
70968;BME280;58629;48.808;8.820;2023-04-08T12:06:41;97572.66;;;9.94;57.51
70968;BME280;58629;48.808;8.820;2023-04-08T12:09:11;97571.69;;;9.71;58.85
70968;BME280;58629;48.808;8.820;2023-04-08T12:11:36;97572.47;;;9.68;57.68
70968;BME280;58629;48.808;8.820;2023-04-08T12:14:02;97569.44;;;9.69;60.25
70968;BME280;58629;48.808;8.820;2023-04-08T12:16:27;97575.22;;;9.50;58.35
70968;BME280;58629;48.808;8.820;2023-04-08T12:18:52;97571.78;;;9.60;60.04
70968;BME280;58629;48.808;8.820;2023-04-08T12:21:17;97572.22;;;9.48;61.80
70968;BME280;58629;48.808;8.820;2023-04-08T12:23:43;97574.16;;;9.40;59.48
70968;BME280;58629;48.808;8.820;2023-04-08T12:26:08;97575.69;;;9.38;60.46
70968;BME280;58629;48.808;8.820;2023-04-08T12:28:34;97578.66;;;9.43;58.82
70968;BME280;58629;48.808;8.820;2023-04-08T12:31:00;97577.88;;;9.50;59.37
70968;BME280;58629;48.808;8.820;2023-04-08T12:33:26;97569.59;;;9.41;61.65
70968;BME280;58629;48.808;8.820;2023-04-08T12:35:51;97577.19;;;9.39;61.78
70968;BME280;58629;48.808;8.820;2023-04-08T12:38:17;97574.16;;;9.40;61.37
70968;BME280;58629;48.808;8.820;2023-04-08T12:40:42;97577.19;;;9.42;60.76
70968;BME280;58629;48.808;8.820;2023-04-08T12:43:07;97573.72;;;9.49;63.28
70968;BME280;58629;48.808;8.820;2023-04-08T12:45:32;97573.72;;;9.49;61.61
70968;BME280;58629;48.808;8.820;2023-04-08T12:47:58;97570.38;;;9.41;61.34
70968;BME280;58629;48.808;8.820;2023-04-08T12:50:23;97572.66;;;9.39;61.90
70968;BME280;58629;48.808;8.820;2023-04-08T12:52:48;97568.47;;;9.42;62.04
70968;BME280;58629;48.808;8.820;2023-04-08T12:55:14;97571.06;;;9.52;64.46
70968;BME280;58629;48.808;8.820;2023-04-08T12:57:39;97561.84;;;9.71;62.14
70968;BME280;58629;48.808;8.820;2023-04-08T13:00:05;97562.59;;;9.75;61.02
70968;BME280;58629;48.808;8.820;2023-04-08T13:02:31;97570.06;;;9.87;63.31
70968;BME280;58629;48.808;8.820;2023-04-08T13:04:56;97570.47;;;9.79;58.91
70968;BME280;58629;48.808;8.820;2023-04-08T13:07:21;97561.03;;;9.81;59.15
70968;BME280;58629;48.808;8.820;2023-04-08T13:09:47;97571.22;;;9.83;59.40
70968;BME280;58629;48.808;8.820;2023-04-08T13:12:13;97568.50;;;9.93;59.94
70968;BME280;58629;48.808;8.820;2023-04-08T13:14:38;97562.22;;;10.21;59.93